createdAt,value
2019-05-13T00:00:08.264Z,99.99
2019-05-13T00:01:08.249Z,99.99
2019-05-13T00:02:08.152Z,99.99
2019-05-13T00:03:08.104Z,99.99
2019-05-13T00:04:08.037Z,99.99
2019-05-13T00:05:07.984Z,99.99
2019-05-13T00:06:07.961Z,99.99
2019-05-13T00:07:07.876Z,99.99
2019-05-13T00:08:07.815Z,99.99
2019-05-13T00:09:07.759Z,99.99
2019-05-13T00:10:07.748Z,99.99
2019-05-13T00:11:07.649Z,99.34
2019-05-13T00:12:07.595Z,98.58
2019-05-13T00:13:07.537Z,99.99
2019-05-13T00:14:07.478Z,99.15
2019-05-13T00:15:07.460Z,98.68
2019-05-13T00:16:07.368Z,98.58
2019-05-13T00:17:07.316Z,99.58
2019-05-13T00:18:07.261Z,97.40
2019-05-13T00:19:07.203Z,98.91
2019-05-13T00:20:07.178Z,96.83
2019-05-13T00:21:07.083Z,95.41
2019-05-13T00:22:07.029Z,93.42
2019-05-13T00:23:06.976Z,93.23
2019-05-13T00:24:06.919Z,90.48
2019-05-13T00:25:06.889Z,92.66
2019-05-13T00:26:06.804Z,94.84
2019-05-13T00:27:06.749Z,93.61
2019-05-13T00:28:06.724Z,94.08
2019-05-13T00:29:06.632Z,92.28
2019-05-13T00:30:06.629Z,93.42
2019-05-13T00:31:06.528Z,93.42
2019-05-13T00:32:06.472Z,93.42
2019-05-13T00:33:06.407Z,94.56
2019-05-13T00:34:06.383Z,95.41
2019-05-13T00:35:06.332Z,96.36
2019-05-13T00:36:06.239Z,94.08
2019-05-13T00:37:11.075Z,95.03
2019-05-13T00:38:06.122Z,97.59
2019-05-13T00:39:06.106Z,96.26
2019-05-13T00:40:06.011Z,91.90
2019-05-13T00:41:05.955Z,94.46
2019-05-13T00:42:05.901Z,93.61
2019-05-13T00:43:05.876Z,93.04
2019-05-13T00:44:05.785Z,92.09
2019-05-13T00:45:05.762Z,95.31
2019-05-13T00:46:05.669Z,96.73
2019-05-13T00:47:05.614Z,95.22
2019-05-13T00:48:05.554Z,92.57
2019-05-13T00:49:05.502Z,95.12
2019-05-13T00:50:05.472Z,92.94
2019-05-13T00:51:05.390Z,92.00
2019-05-13T00:52:05.330Z,91.33
2019-05-13T00:53:05.271Z,92.09
2019-05-13T00:54:05.215Z,92.66
2019-05-13T00:55:05.198Z,93.23
2019-05-13T00:56:05.102Z,92.66
2019-05-13T00:57:05.043Z,91.52
2019-05-13T00:58:04.995Z,91.24
2019-05-13T00:59:04.933Z,92.85
2019-05-13T01:00:04.919Z,93.32
2019-05-13T01:01:04.821Z,93.13
2019-05-13T01:02:04.765Z,94.27
2019-05-13T01:03:04.714Z,91.43
2019-05-13T01:04:04.649Z,91.05
2019-05-13T01:05:04.632Z,90.86
2019-05-13T01:06:04.568Z,90.39
2019-05-13T01:07:04.725Z,92.28
2019-05-13T01:08:04.557Z,93.13
2019-05-13T01:09:04.370Z,92.85
2019-05-13T01:10:04.382Z,93.80
2019-05-13T01:11:04.478Z,92.47
2019-05-13T01:12:04.595Z,93.32
2019-05-13T01:13:04.954Z,93.42
2019-05-13T01:14:04.392Z,94.84
2019-05-13T01:15:04.222Z,93.84
2019-05-13T01:16:04.036Z,95.74
2019-05-13T01:17:04.169Z,95.84
2019-05-13T01:18:04.249Z,95.74
2019-05-13T01:19:04.310Z,96.12
2019-05-13T01:20:04.256Z,96.12
2019-05-13T01:21:04.467Z,96.22
2019-05-13T01:22:03.675Z,96.50
2019-05-13T01:23:04.091Z,97.54
2019-05-13T01:24:03.842Z,96.50
2019-05-13T01:25:04.065Z,97.45
2019-05-13T01:26:04.073Z,97.73
2019-05-13T01:27:04.066Z,98.11
2019-05-13T01:28:04.502Z,99.44
2019-05-13T01:29:04.137Z,97.92
2019-05-13T01:30:04.151Z,99.15
2019-05-13T01:31:04.211Z,99.25
2019-05-13T01:32:04.498Z,99.99
2019-05-13T01:33:04.308Z,99.72
2019-05-13T01:34:04.035Z,99.72
2019-05-13T01:35:04.553Z,99.34
2019-05-13T01:36:05.119Z,99.25
2019-05-13T01:37:04.273Z,99.72
2019-05-13T01:38:04.521Z,99.99
2019-05-13T01:39:04.258Z,99.72
2019-05-13T01:40:04.940Z,99.63
2019-05-13T01:41:04.404Z,99.44
2019-05-13T01:42:03.643Z,99.99
2019-05-13T01:43:03.599Z,99.63
2019-05-13T01:44:04.065Z,99.82
2019-05-13T01:45:04.514Z,99.63
2019-05-13T01:46:04.350Z,99.72
2019-05-13T01:47:04.293Z,99.99
2019-05-13T01:48:06.286Z,99.82
2019-05-13T01:49:04.799Z,99.06
2019-05-13T01:50:04.104Z,99.99
2019-05-13T01:51:03.754Z,99.15
2019-05-13T01:52:03.869Z,99.99
2019-05-13T01:53:04.230Z,99.99
2019-05-13T01:54:03.949Z,99.99
2019-05-13T01:55:03.996Z,98.96
2019-05-13T01:56:03.765Z,99.99
2019-05-13T01:57:04.107Z,99.53
2019-05-13T01:58:03.878Z,99.25
2019-05-13T01:59:03.667Z,99.99
2019-05-13T02:00:01.461Z,99.82
2019-05-13T02:01:01.408Z,99.82
2019-05-13T02:02:03.355Z,99.91
2019-05-13T02:03:03.656Z,99.25
2019-05-13T02:04:03.706Z,99.72
2019-05-13T02:05:03.709Z,99.34
2019-05-13T02:06:03.530Z,99.99
2019-05-13T02:07:01.065Z,99.53
2019-05-13T02:08:01.041Z,99.82
2019-05-13T02:09:00.982Z,99.99
2019-05-13T02:10:00.894Z,99.99
2019-05-13T02:11:00.837Z,99.82
2019-05-13T02:12:00.779Z,99.99
2019-05-13T02:13:00.721Z,99.99
2019-05-13T02:14:00.706Z,99.99
2019-05-13T02:15:00.609Z,99.15
2019-05-13T02:16:00.556Z,99.99
2019-05-13T02:17:00.495Z,99.99
2019-05-13T02:18:00.437Z,99.99
2019-05-13T02:19:00.414Z,99.91
2019-05-13T02:20:00.324Z,99.06
2019-05-13T02:21:00.271Z,99.82
2019-05-13T02:22:00.211Z,99.99
2019-05-13T02:23:00.179Z,99.99
2019-05-13T02:24:00.129Z,99.99
2019-05-13T02:25:00.040Z,99.99
2019-05-13T02:25:59.981Z,99.99
2019-05-13T02:26:59.926Z,99.99
2019-05-13T02:27:59.866Z,99.99
2019-05-13T02:28:59.861Z,99.99
2019-05-13T02:29:59.753Z,98.58
2019-05-13T02:30:59.789Z,99.91
2019-05-13T02:32:02.763Z,99.06
2019-05-13T02:33:02.726Z,99.82
2019-05-13T02:34:02.547Z,99.99
2019-05-13T02:35:02.737Z,99.99
2019-05-13T02:36:02.618Z,99.06
2019-05-13T02:36:59.397Z,97.26
2019-05-13T02:38:17.781Z,97.78
2019-05-13T02:39:02.249Z,99.29
2019-05-13T02:40:03.200Z,98.91
2019-05-13T02:40:59.130Z,99.86
2019-05-13T02:41:59.108Z,99.10
2019-05-13T02:43:02.639Z,99.96
2019-05-13T02:43:58.960Z,98.72
2019-05-13T02:44:58.903Z,99.99
2019-05-13T02:45:58.845Z,97.78
2019-05-13T02:46:58.828Z,97.78
2019-05-13T02:47:58.734Z,97.87
2019-05-13T02:48:58.671Z,98.06
2019-05-13T02:50:03.896Z,97.40
2019-05-13T02:50:58.560Z,97.02
2019-05-13T02:51:58.533Z,98.63
2019-05-13T02:52:58.459Z,97.59
2019-05-13T02:53:58.392Z,99.10
2019-05-13T02:54:58.331Z,98.54
2019-05-13T02:55:58.318Z,96.26
2019-05-13T02:56:58.215Z,96.83
2019-05-13T02:57:58.159Z,95.93
2019-05-13T02:58:58.107Z,97.06
2019-05-13T02:59:58.046Z,96.31
2019-05-13T03:00:58.029Z,96.12
2019-05-13T03:01:57.929Z,94.98
2019-05-13T03:02:57.873Z,94.98
2019-05-13T03:03:57.818Z,94.60
2019-05-13T03:04:57.757Z,93.65
2019-05-13T03:05:57.738Z,94.04
2019-05-13T03:06:57.641Z,92.99
2019-05-13T03:07:57.585Z,94.42
2019-05-13T03:08:57.528Z,91.19
2019-05-13T03:09:57.471Z,90.44
2019-05-13T03:10:57.449Z,90.63
2019-05-13T03:11:57.394Z,89.96
2019-05-13T03:12:57.297Z,89.11
2019-05-13T03:13:57.241Z,88.73
2019-05-13T03:14:57.182Z,89.96
2019-05-13T03:15:57.123Z,88.45
2019-05-13T03:16:57.110Z,89.77
2019-05-13T03:17:57.012Z,90.63
2019-05-13T03:18:56.952Z,90.06
2019-05-13T03:19:56.893Z,89.58
2019-05-13T03:20:56.837Z,89.58
2019-05-13T03:21:56.820Z,90.15
2019-05-13T03:22:56.721Z,90.25
2019-05-13T03:23:56.661Z,88.73
2019-05-13T03:24:56.610Z,90.44
2019-05-13T03:25:56.548Z,87.78
2019-05-13T03:26:56.531Z,88.17
2019-05-13T03:27:56.432Z,90.25
2019-05-13T03:28:56.373Z,89.54
2019-05-13T03:29:56.319Z,88.78
2019-05-13T03:30:57.178Z,88.87
2019-05-13T03:31:56.871Z,87.36
2019-05-13T03:33:02.237Z,88.59
2019-05-13T03:33:56.702Z,86.41
2019-05-13T03:34:57.139Z,86.79
2019-05-13T03:35:56.763Z,88.87
2019-05-13T03:36:57.855Z,88.40
2019-05-13T03:37:55.872Z,88.02
2019-05-13T03:39:05.731Z,86.60
2019-05-13T03:39:55.734Z,85.75
2019-05-13T03:40:55.701Z,85.85
2019-05-13T03:41:55.621Z,85.28
2019-05-13T03:42:55.563Z,84.90
2019-05-13T03:43:55.509Z,82.15
2019-05-13T03:44:55.461Z,78.94
2019-05-13T03:45:55.426Z,80.07
2019-05-13T03:46:55.337Z,80.26
2019-05-13T03:47:55.282Z,80.83
2019-05-13T03:48:55.215Z,81.49
2019-05-13T03:49:55.158Z,81.59
2019-05-13T03:50:55.148Z,80.26
2019-05-13T03:51:55.058Z,80.36
2019-05-13T03:52:55.001Z,80.17
2019-05-13T03:53:54.925Z,80.74
2019-05-13T03:54:54.867Z,81.77
2019-05-13T03:55:54.843Z,81.49
2019-05-13T03:56:54.779Z,82.72
2019-05-13T03:57:54.710Z,81.92
2019-05-13T03:58:54.641Z,83.05
2019-05-13T03:59:54.578Z,82.86
2019-05-13T04:00:54.550Z,81.82
2019-05-13T04:01:54.460Z,82.86
2019-05-13T04:02:54.400Z,84.23
2019-05-13T04:03:54.348Z,84.56
2019-05-13T04:04:58.592Z,84.56
2019-05-13T04:05:54.267Z,84.94
2019-05-13T04:06:54.168Z,85.99
2019-05-13T04:07:54.115Z,85.61
2019-05-13T04:08:54.359Z,86.36
2019-05-13T04:09:54.004Z,87.02
2019-05-13T04:10:53.967Z,88.07
2019-05-13T04:11:53.911Z,87.69
2019-05-13T04:12:53.820Z,88.07
2019-05-13T04:13:53.763Z,88.73
2019-05-13T04:14:53.705Z,88.92
2019-05-13T04:15:53.647Z,87.59
2019-05-13T04:16:53.718Z,87.59
2019-05-13T04:17:53.670Z,90.34
2019-05-13T04:18:53.922Z,88.45
2019-05-13T04:19:53.417Z,88.17
2019-05-13T04:20:53.447Z,88.78
2019-05-13T04:21:53.330Z,89.06
2019-05-13T04:22:53.595Z,88.59
2019-05-13T04:23:53.524Z,86.22
2019-05-13T04:24:53.303Z,87.17
2019-05-13T04:25:53.876Z,86.32
2019-05-13T04:26:53.494Z,84.14
2019-05-13T04:27:52.981Z,85.19
2019-05-13T04:28:52.939Z,84.14
2019-05-13T04:29:52.943Z,82.72
2019-05-13T04:30:52.913Z,85.09
2019-05-13T04:31:53.342Z,83.20
2019-05-13T04:32:53.652Z,81.49
2019-05-13T04:33:53.313Z,82.44
2019-05-13T04:34:52.975Z,82.91
2019-05-13T04:35:53.143Z,81.68
2019-05-13T04:36:52.430Z,81.96
2019-05-13T04:37:52.947Z,80.26
2019-05-13T04:38:53.074Z,81.59
2019-05-13T04:39:56.170Z,81.68
2019-05-13T04:40:53.026Z,82.53
2019-05-13T04:41:53.032Z,82.91
2019-05-13T04:42:53.408Z,81.96
2019-05-13T04:43:54.078Z,82.15
2019-05-13T04:44:53.210Z,83.48
2019-05-13T04:45:52.591Z,84.33
2019-05-13T04:46:52.375Z,82.72
2019-05-13T04:47:52.948Z,82.44
2019-05-13T04:48:53.084Z,83.76
2019-05-13T04:49:53.387Z,82.91
2019-05-13T04:50:53.323Z,82.48
2019-05-13T04:51:52.378Z,82.57
2019-05-13T04:52:52.542Z,81.44
2019-05-13T04:53:56.011Z,82.48
2019-05-13T04:54:52.824Z,82.29
2019-05-13T04:55:52.593Z,80.68
2019-05-13T04:56:52.502Z,81.92
2019-05-13T04:57:53.172Z,82.29
2019-05-13T04:58:52.864Z,83.62
2019-05-13T04:59:54.858Z,85.23
2019-05-13T05:01:02.052Z,85.04
2019-05-13T05:01:55.312Z,83.62
2019-05-13T05:02:55.045Z,85.61
2019-05-13T05:03:53.117Z,84.94
2019-05-13T05:04:52.421Z,84.19
2019-05-13T05:05:52.773Z,84.56
2019-05-13T05:06:52.702Z,84.75
2019-05-13T05:07:52.560Z,86.18
2019-05-13T05:08:52.544Z,85.80
2019-05-13T05:10:17.286Z,86.55
2019-05-13T05:10:53.849Z,87.02
2019-05-13T05:11:52.878Z,86.74
2019-05-13T05:12:51.863Z,85.70
2019-05-13T05:13:54.223Z,85.61
2019-05-13T05:14:52.214Z,85.23
2019-05-13T05:15:52.320Z,83.43
2019-05-13T05:16:52.301Z,84.66
2019-05-13T05:17:52.208Z,83.81
2019-05-13T05:18:52.589Z,85.04
2019-05-13T05:19:52.485Z,85.32
2019-05-13T05:20:51.905Z,84.28
2019-05-13T05:21:52.679Z,85.61
2019-05-13T05:22:51.227Z,86.31
2019-05-13T05:23:51.514Z,86.79
2019-05-13T05:24:51.886Z,86.50
2019-05-13T05:25:52.040Z,86.88
2019-05-13T05:26:49.516Z,86.50
2019-05-13T05:27:51.441Z,87.54
2019-05-13T05:28:51.785Z,88.49
2019-05-13T05:29:51.507Z,89.91
2019-05-13T05:30:51.686Z,89.72
2019-05-13T05:31:49.228Z,87.92
2019-05-13T05:32:51.643Z,87.54
2019-05-13T05:33:51.509Z,88.40
2019-05-13T05:34:49.090Z,88.40
2019-05-13T05:35:48.998Z,87.54
2019-05-13T05:36:48.940Z,88.21
2019-05-13T05:37:48.881Z,88.30
2019-05-13T05:38:51.261Z,89.44
2019-05-13T05:39:51.155Z,88.30
2019-05-13T05:40:51.025Z,89.34
2019-05-13T05:41:48.681Z,89.25
2019-05-13T05:42:48.591Z,89.34
2019-05-13T05:43:48.531Z,89.63
2019-05-13T05:44:48.476Z,90.01
2019-05-13T05:45:48.417Z,89.34
2019-05-13T05:46:48.395Z,90.01
2019-05-13T05:47:48.302Z,90.48
2019-05-13T05:48:50.038Z,89.91
2019-05-13T05:49:48.191Z,89.82
2019-05-13T05:50:48.131Z,89.72
2019-05-13T05:51:48.103Z,90.86
2019-05-13T05:52:48.010Z,90.39
2019-05-13T05:53:47.953Z,88.96
2019-05-13T05:54:47.897Z,90.39
2019-05-13T05:55:47.840Z,90.77
2019-05-13T05:56:47.814Z,91.52
2019-05-13T05:57:47.723Z,91.05
2019-05-13T05:58:47.665Z,90.86
2019-05-13T05:59:47.608Z,90.10
2019-05-13T06:00:47.550Z,90.86
2019-05-13T06:01:47.535Z,90.77
2019-05-13T06:02:47.442Z,89.82
2019-05-13T06:03:47.386Z,89.15
2019-05-13T06:04:47.319Z,88.11
2019-05-13T06:05:47.264Z,89.11
2019-05-13T06:06:47.237Z,90.91
2019-05-13T06:07:47.145Z,90.34
2019-05-13T06:08:47.090Z,90.53
2019-05-13T06:09:47.031Z,90.05
2019-05-13T06:10:50.466Z,91.66
2019-05-13T06:11:46.949Z,89.86
2019-05-13T06:12:46.858Z,91.28
2019-05-13T06:13:46.802Z,90.72
2019-05-13T06:14:46.742Z,91.09
2019-05-13T06:15:46.690Z,90.81
2019-05-13T06:16:46.667Z,92.52
2019-05-13T06:17:46.572Z,93.37
2019-05-13T06:18:46.515Z,93.65
2019-05-13T06:19:46.459Z,91.57
2019-05-13T06:20:46.400Z,91.85
2019-05-13T06:21:46.375Z,91.09
2019-05-13T06:22:46.287Z,91.28
2019-05-13T06:23:46.260Z,91.95
2019-05-13T06:24:46.169Z,91.38
2019-05-13T06:25:46.119Z,92.14
2019-05-13T06:26:46.057Z,90.05
2019-05-13T06:27:45.998Z,89.96
2019-05-13T06:28:45.969Z,91.38
2019-05-13T06:29:49.013Z,91.57
2019-05-13T06:30:45.836Z,91.47
2019-05-13T06:31:45.769Z,92.52
2019-05-13T06:32:45.713Z,93.70
2019-05-13T06:33:45.687Z,91.52
2019-05-13T06:34:45.626Z,92.47
2019-05-13T06:35:45.541Z,91.71
2019-05-13T06:36:45.491Z,91.80
2019-05-13T06:37:45.428Z,90.10
2019-05-13T06:38:45.372Z,89.91
2019-05-13T06:39:45.343Z,91.99
2019-05-13T06:40:59.331Z,90.57
2019-05-13T06:41:45.200Z,90.67
2019-05-13T06:42:45.143Z,92.47
2019-05-13T06:43:45.088Z,93.41
2019-05-13T06:44:45.055Z,93.23
2019-05-13T06:45:44.974Z,91.42
2019-05-13T06:46:44.918Z,91.05
2019-05-13T06:47:44.855Z,92.28
2019-05-13T06:48:44.801Z,92.09
2019-05-13T06:49:44.783Z,91.99
2019-05-13T06:50:44.688Z,91.71
2019-05-13T06:51:44.636Z,93.41
2019-05-13T06:52:44.606Z,95.12
2019-05-13T06:53:44.524Z,93.51
2019-05-13T06:54:44.491Z,92.47
2019-05-13T06:55:44.405Z,93.84
2019-05-13T06:56:44.347Z,94.42
2019-05-13T06:57:44.292Z,93.94
2019-05-13T06:58:44.273Z,93.08
2019-05-13T06:59:44.178Z,92.52
2019-05-13T07:00:44.152Z,92.42
2019-05-13T07:01:44.062Z,94.13
2019-05-13T07:02:44.005Z,94.60
2019-05-13T07:03:43.984Z,94.60
2019-05-13T07:04:43.894Z,93.75
2019-05-13T07:05:43.876Z,93.37
2019-05-13T07:06:43.780Z,93.37
2019-05-13T07:07:43.723Z,94.13
2019-05-13T07:08:43.747Z,93.65
2019-05-13T07:09:43.657Z,95.27
2019-05-13T07:10:43.555Z,95.93
2019-05-13T07:11:43.527Z,95.51
2019-05-13T07:12:43.442Z,93.70
2019-05-13T07:13:43.388Z,94.27
2019-05-13T07:14:43.379Z,95.60
2019-05-13T07:15:43.271Z,96.64
2019-05-13T07:16:43.217Z,96.36
2019-05-13T07:17:43.158Z,96.36
2019-05-13T07:18:43.102Z,95.98
2019-05-13T07:19:43.094Z,96.74
2019-05-13T07:20:42.993Z,97.60
2019-05-13T07:21:42.936Z,96.74
2019-05-13T07:22:42.882Z,98.45
2019-05-13T07:23:42.822Z,99.68
2019-05-13T07:24:42.887Z,98.92
2019-05-13T07:25:42.721Z,98.54
2019-05-13T07:26:42.656Z,99.73
2019-05-13T07:27:42.637Z,99.99
2019-05-13T07:28:42.976Z,99.99
2019-05-13T07:29:42.585Z,99.92
2019-05-13T07:30:42.756Z,99.83
2019-05-13T07:31:42.405Z,99.99
2019-05-13T07:32:42.351Z,99.99
2019-05-13T07:33:42.734Z,99.99
2019-05-13T07:34:44.024Z,99.99
2019-05-13T07:35:44.475Z,99.99
2019-05-13T07:36:42.342Z,99.99
2019-05-13T07:37:42.493Z,99.99
2019-05-13T07:38:41.982Z,99.99
2019-05-13T07:39:42.043Z,99.99
2019-05-13T07:40:42.048Z,99.99
2019-05-13T07:41:43.216Z,99.99
2019-05-13T07:42:42.097Z,99.99
2019-05-13T07:43:42.665Z,99.99
2019-05-13T07:44:41.834Z,99.99
2019-05-13T07:45:42.265Z,99.99
2019-05-13T07:46:42.691Z,99.99
2019-05-13T07:47:41.944Z,99.99
2019-05-13T07:48:41.726Z,99.99
2019-05-13T07:49:42.032Z,99.99
2019-05-13T07:50:55.555Z,99.99
2019-05-13T07:51:42.070Z,99.99
2019-05-13T07:52:42.198Z,99.99
2019-05-13T07:53:42.579Z,99.99
2019-05-13T07:54:41.961Z,99.99
2019-05-13T07:55:42.105Z,99.99
2019-05-13T07:56:42.672Z,99.99
2019-05-13T07:57:42.303Z,99.99
2019-05-13T07:58:41.880Z,99.99
2019-05-13T07:59:41.974Z,99.99
2019-05-13T08:00:41.878Z,99.99
2019-05-13T08:01:41.724Z,99.99
2019-05-13T08:02:41.722Z,99.99
2019-05-13T08:03:42.155Z,99.99
2019-05-13T08:04:42.089Z,99.99
2019-05-13T08:05:41.868Z,99.99
2019-05-13T08:06:41.647Z,99.99
2019-05-13T08:07:42.169Z,99.99
2019-05-13T08:08:41.668Z,99.99
2019-05-13T08:09:41.913Z,99.99
2019-05-13T08:10:41.461Z,99.99
2019-05-13T08:11:58.225Z,99.99
2019-05-13T08:12:41.309Z,99.99
2019-05-13T08:13:42.066Z,99.99
2019-05-13T08:14:43.285Z,99.99
2019-05-13T08:15:42.132Z,99.99
2019-05-13T08:16:39.881Z,99.99
2019-05-13T08:17:46.749Z,99.99
2019-05-13T08:18:43.664Z,99.99
2019-05-13T08:19:41.345Z,99.99
2019-05-13T08:20:42.055Z,99.99
2019-05-13T08:21:41.702Z,99.99
2019-05-13T08:22:39.559Z,99.99
2019-05-13T08:23:41.677Z,99.99
2019-05-13T08:24:42.293Z,99.99
2019-05-13T08:25:39.392Z,99.99
2019-05-13T08:26:44.992Z,99.99
2019-05-13T08:27:39.284Z,99.99
2019-05-13T08:28:53.989Z,99.99
2019-05-13T08:29:41.909Z,99.99
2019-05-13T08:30:39.127Z,99.99
2019-05-13T08:31:41.089Z,98.42
2019-05-13T08:32:39.015Z,96.61
2019-05-13T08:33:39.086Z,94.93
2019-05-13T08:34:41.518Z,94.27
2019-05-13T08:35:38.858Z,94.27
2019-05-13T08:36:39.580Z,93.55
2019-05-13T08:37:41.255Z,91.83
2019-05-13T08:38:38.871Z,89.67
2019-05-13T08:39:38.746Z,89.10
2019-05-13T08:40:38.594Z,86.52
2019-05-13T08:41:38.540Z,83.75
2019-05-13T08:42:38.489Z,82.22
2019-05-13T08:43:38.470Z,82.07
2019-05-13T08:44:38.382Z,80.25
2019-05-13T08:45:38.331Z,79.20
2019-05-13T08:46:38.288Z,77.99
2019-05-13T08:47:38.229Z,79.62
2019-05-13T08:48:38.205Z,76.56
2019-05-13T08:49:38.124Z,74.65
2019-05-13T08:50:38.069Z,74.01
2019-05-13T08:51:38.022Z,74.97
2019-05-13T08:52:37.967Z,77.26
2019-05-13T08:53:37.947Z,73.95
2019-05-13T08:54:37.864Z,71.14
2019-05-13T08:55:37.822Z,71.08
2019-05-13T08:56:37.763Z,69.83
2019-05-13T08:57:37.747Z,69.45
2019-05-13T08:58:37.662Z,68.40
2019-05-13T08:59:37.611Z,66.96
2019-05-13T09:00:37.597Z,66.58
2019-05-13T09:01:37.509Z,65.91
2019-05-13T09:02:37.458Z,67.28
2019-05-13T09:03:37.413Z,67.57
2019-05-13T09:04:37.366Z,66.22
2019-05-13T09:05:37.344Z,65.17
2019-05-13T09:06:37.257Z,64.25
2019-05-13T09:07:37.207Z,63.96
2019-05-13T09:08:37.161Z,62.65
2019-05-13T09:09:37.107Z,62.74
2019-05-13T09:10:37.086Z,61.62
2019-05-13T09:11:37.035Z,61.24
2019-05-13T09:12:40.184Z,61.11
2019-05-13T09:13:36.906Z,60.25
2019-05-13T09:14:36.867Z,58.62
2019-05-13T09:15:36.811Z,57.75
2019-05-13T09:16:36.800Z,56.22
2019-05-13T09:17:36.711Z,58.42
2019-05-13T09:18:36.663Z,58.42
2019-05-13T09:19:36.610Z,55.93
2019-05-13T09:20:36.562Z,55.45
2019-05-13T09:21:36.547Z,55.83
2019-05-13T09:22:36.463Z,54.56
2019-05-13T09:23:36.447Z,55.55
2019-05-13T09:24:37.796Z,55.26
2019-05-13T09:25:36.319Z,54.39
2019-05-13T09:26:36.269Z,54.11
2019-05-13T09:27:36.253Z,53.15
2019-05-13T09:28:36.174Z,54.71
2019-05-13T09:29:36.124Z,54.61
2019-05-13T09:30:36.077Z,52.79
2019-05-13T09:31:36.030Z,53.27
2019-05-13T09:32:36.011Z,52.40
2019-05-13T09:33:35.937Z,52.12
2019-05-13T09:34:35.885Z,51.35
2019-05-13T09:35:35.839Z,51.54
2019-05-13T09:36:35.792Z,49.15
2019-05-13T09:37:35.772Z,48.57
2019-05-13T09:38:35.693Z,49.05
2019-05-13T09:39:35.648Z,50.10
2019-05-13T09:40:35.628Z,51.45
2019-05-13T09:41:40.865Z,50.78
2019-05-13T09:42:48.195Z,51.37
2019-05-13T09:43:35.454Z,50.13
2019-05-13T09:44:35.405Z,48.30
2019-05-13T09:45:35.383Z,48.21
2019-05-13T09:46:35.313Z,48.49
2019-05-13T09:47:35.263Z,50.23
2019-05-13T09:48:35.248Z,49.26
2019-05-13T09:49:35.176Z,47.34
2019-05-13T09:50:36.222Z,46.09
2019-05-13T09:51:35.084Z,46.58
2019-05-13T09:52:35.063Z,48.04
2019-05-13T09:53:34.983Z,47.36
2019-05-13T09:54:34.940Z,46.21
2019-05-13T09:55:34.927Z,46.02
2019-05-13T09:56:34.840Z,45.54
2019-05-13T09:57:34.797Z,45.64
2019-05-13T09:58:34.750Z,47.10
2019-05-13T09:59:34.701Z,45.37
2019-05-13T10:00:34.695Z,46.04
2019-05-13T10:01:34.611Z,45.18
2019-05-13T10:02:34.563Z,45.08
2019-05-13T10:03:52.893Z,45.85
2019-05-13T10:04:34.474Z,44.70
2019-05-13T10:05:34.458Z,44.41
2019-05-13T10:06:34.381Z,43.93
2019-05-13T10:07:34.385Z,44.70
2019-05-13T10:08:34.286Z,44.31
2019-05-13T10:09:34.241Z,44.51
2019-05-13T10:10:34.195Z,43.54
2019-05-13T10:11:34.149Z,42.97
2019-05-13T10:12:34.136Z,42.20
2019-05-13T10:13:34.058Z,42.20
2019-05-13T10:14:34.023Z,42.58
2019-05-13T10:15:33.965Z,42.87
2019-05-13T10:16:33.925Z,42.80
2019-05-13T10:17:33.905Z,40.66
2019-05-13T10:18:33.827Z,40.37
2019-05-13T10:19:33.786Z,41.62
2019-05-13T10:20:33.790Z,42.97
2019-05-13T10:21:33.690Z,41.74
2019-05-13T10:22:33.649Z,40.01
2019-05-13T10:23:33.650Z,39.89
2019-05-13T10:24:33.585Z,40.78
2019-05-13T10:25:33.509Z,42.50
2019-05-13T10:26:33.465Z,41.24
2019-05-13T10:27:33.418Z,40.20
2019-05-13T10:28:33.373Z,40.78
2019-05-13T10:29:33.365Z,41.16
2019-05-13T10:30:33.283Z,40.58
2019-05-13T10:31:33.239Z,42.41
2019-05-13T10:32:33.193Z,41.35
2019-05-13T10:33:33.151Z,39.61
2019-05-13T10:34:33.138Z,40.66
2019-05-13T10:35:33.054Z,42.03
2019-05-13T10:36:33.013Z,42.89
2019-05-13T10:37:32.968Z,40.97
2019-05-13T10:38:32.973Z,39.91
2019-05-13T10:39:32.910Z,38.18
2019-05-13T10:40:32.880Z,38.95
2019-05-13T10:41:33.427Z,40.61
2019-05-13T10:42:32.766Z,41.08
2019-05-13T10:43:32.935Z,41.28
2019-05-13T10:44:32.650Z,40.31
2019-05-13T10:45:33.374Z,39.16
2019-05-13T10:46:32.560Z,36.76
2019-05-13T10:47:32.563Z,35.39
2019-05-13T10:48:32.470Z,37.41
2019-05-13T10:49:33.285Z,37.12
2019-05-13T10:50:32.382Z,38.39
2019-05-13T10:51:32.800Z,38.97
2019-05-13T10:52:32.413Z,38.29
2019-05-13T10:53:32.381Z,39.74
2019-05-13T10:54:32.620Z,40.80
2019-05-13T10:55:32.595Z,41.66
2019-05-13T10:56:32.733Z,39.64
2019-05-13T10:57:32.119Z,37.72
2019-05-13T10:58:32.056Z,39.54
2019-05-13T10:59:31.977Z,40.61
2019-05-13T11:00:32.149Z,39.16
2019-05-13T11:01:32.797Z,38.10
2019-05-13T11:02:32.858Z,38.01
2019-05-13T11:03:32.957Z,37.24
2019-05-13T11:04:32.717Z,38.01
2019-05-13T11:05:32.716Z,37.34
2019-05-13T11:06:32.472Z,37.72
2019-05-13T11:07:32.188Z,37.34
2019-05-13T11:08:32.997Z,37.34
2019-05-13T11:09:32.479Z,37.34
2019-05-13T11:10:32.614Z,36.37
2019-05-13T11:11:32.951Z,35.79
2019-05-13T11:12:33.516Z,36.37
2019-05-13T11:13:49.640Z,36.18
2019-05-13T11:14:32.352Z,35.50
2019-05-13T11:15:32.834Z,36.27
2019-05-13T11:16:31.223Z,35.50
2019-05-13T11:17:33.042Z,35.89
2019-05-13T11:18:31.141Z,37.24
2019-05-13T11:19:36.641Z,36.27
2019-05-13T11:20:32.367Z,36.76
2019-05-13T11:21:32.081Z,37.43
2019-05-13T11:22:32.662Z,39.36
2019-05-13T11:23:32.240Z,40.70
2019-05-13T11:24:32.490Z,38.31
2019-05-13T11:25:32.377Z,38.70
2019-05-13T11:26:35.983Z,37.16
2019-05-13T11:27:32.351Z,35.52
2019-05-13T11:28:31.750Z,37.16
2019-05-13T11:29:32.314Z,38.02
2019-05-13T11:30:31.996Z,37.74
2019-05-13T11:31:32.854Z,37.35
2019-05-13T11:32:31.737Z,37.06
2019-05-13T11:33:31.843Z,36.77
2019-05-13T11:34:32.947Z,37.26
2019-05-13T11:35:31.980Z,39.18
2019-05-13T11:36:33.359Z,38.41
2019-05-13T11:37:32.090Z,37.93
2019-05-13T11:38:32.666Z,38.51
2019-05-13T11:39:32.487Z,37.35
2019-05-13T11:40:31.836Z,37.74
2019-05-13T11:41:32.448Z,37.16
2019-05-13T11:42:32.568Z,38.41
2019-05-13T11:43:30.034Z,38.89
2019-05-13T11:44:32.189Z,37.45
2019-05-13T11:45:31.561Z,37.16
2019-05-13T11:46:32.462Z,35.81
2019-05-13T11:47:32.260Z,35.25
2019-05-13T11:48:32.331Z,35.54
2019-05-13T11:49:31.627Z,36.51
2019-05-13T11:50:29.811Z,35.81
2019-05-13T11:51:31.998Z,35.24
2019-05-13T11:52:31.549Z,34.08
2019-05-13T11:53:33.538Z,33.20
2019-05-13T11:54:29.550Z,33.48
2019-05-13T11:55:29.537Z,35.22
2019-05-13T11:56:33.425Z,35.41
2019-05-13T11:57:31.542Z,34.92
2019-05-13T11:58:30.097Z,35.24
2019-05-13T11:59:32.729Z,34.83
2019-05-13T12:00:31.787Z,35.02
2019-05-13T12:01:29.262Z,34.92
2019-05-13T12:02:32.008Z,35.50
2019-05-13T12:03:32.188Z,36.56
2019-05-13T12:04:29.113Z,36.66
2019-05-13T12:05:29.091Z,35.79
2019-05-13T12:06:29.029Z,36.39
2019-05-13T12:07:28.978Z,35.50
2019-05-13T12:08:28.966Z,36.37
2019-05-13T12:09:28.891Z,36.56
2019-05-13T12:10:28.847Z,37.06
2019-05-13T12:11:28.801Z,37.16
2019-05-13T12:12:31.815Z,35.42
2019-05-13T12:13:28.750Z,35.52
2019-05-13T12:15:04.987Z,36.29
2019-05-13T12:15:45.012Z,38.14
2019-05-13T12:16:28.585Z,38.81
2019-05-13T12:17:28.540Z,36.49
2019-05-13T12:18:28.495Z,36.31
2019-05-13T12:19:28.483Z,37.37
2019-05-13T12:20:28.407Z,37.18
2019-05-13T12:21:28.362Z,36.51
2019-05-13T12:22:28.319Z,37.18
2019-05-13T12:23:28.315Z,35.42
2019-05-13T12:24:28.254Z,36.00
2019-05-13T12:25:28.203Z,37.66
2019-05-13T12:26:28.144Z,36.11
2019-05-13T12:27:28.101Z,37.27
2019-05-13T12:28:28.092Z,37.95
2019-05-13T12:29:29.141Z,37.45
2019-05-13T12:30:28.034Z,37.56
2019-05-13T12:31:27.925Z,38.12
2019-05-13T12:32:27.880Z,39.56
2019-05-13T12:33:27.839Z,38.53
2019-05-13T12:34:27.800Z,37.37
2019-05-13T12:35:27.783Z,36.79
2019-05-13T12:36:27.711Z,37.37
2019-05-13T12:37:27.691Z,37.08
2019-05-13T12:38:27.620Z,35.73
2019-05-13T12:39:27.590Z,35.52
2019-05-13T12:40:27.567Z,36.29
2019-05-13T12:41:27.490Z,37.35
2019-05-13T12:42:27.456Z,38.62
2019-05-13T12:43:27.402Z,39.39
2019-05-13T12:44:27.358Z,39.29
2019-05-13T12:45:27.351Z,37.56
2019-05-13T12:46:27.273Z,37.56
2019-05-13T12:47:27.227Z,37.56
2019-05-13T12:48:27.220Z,36.41
2019-05-13T12:49:32.326Z,36.51
2019-05-13T12:50:27.103Z,36.71
2019-05-13T12:51:27.055Z,37.87